Portada
METAR-TAF:

METAR-TAF

Aeroports :

Lihue, Hawaii, Estats Units d'Amèrica

latitud: 21-59-02N, longitud: 159-20-28W, altitud: 45 m

Observació

L'informe es va fer fa 59 minuts, a les 19:53 UTC
Vent 12 kt del Est/Nord-Est
Temperatura 27°C
Humitat 79%
Pressió 1019 hPa
Visibilitat: 16.1 km
Cel ennuvolat a una alçada de 5000 ft

METAR: PHLI 171953Z 07012KT 10SM BKN050 27/23 A3010 RMK AO2 SLP188 T02720233 $

Hora: 10:52 (20:52 UTC)

Pronòstic

L'informe es va fer fa 3 hores i 25 minuts, a les 17:27 UTC
Pronòstic vàlid del 17 a les 18 UTC al 18 a les 18 UTC
Vent 14 kt del Est/Nord-Est
Visibilitat: 10 km
Escasses núvols a una alçada de 2000 ft
Núvols disperses a una alçada de 4500 ft
xàfecs en les proximitats
A partir de les 18 a les 0800 UTC
Vent 12 kt del Est/Nord-Est
Visibilitat: 10 km
Núvols disperses a una alçada de 2000 ft
Cel ennuvolat a una alçada de 4000 ft
xàfecs en les proximitats

TAF: PHLI 171727Z 1718/1818 06014KT P6SM VCSH FEW020 SCT045 FM180800 07012KT P6SM VCSH SCT020 BKN040

Observacions i pronòstics meteorològics de més de 4000 aeroports (METAR i TAF).

Les estacions disponibles són els punts grocs i vermells al mapa.

Posi el ratolí al punt desitjat per veure el nom de l'estació.

Feu clic per veure les observacions i els pronòstics meteorològics.

Per canviar el mapa: feu clic els botons verds amb una creu de color negre per apropar; al botó verd amb un guió per allunyar la imatge; o en les fletxes verdes per a mapes adjacents.


METAR-TAF: